createdAt,value
2022-08-30T00:00:38.741Z,99543.39
2022-08-30T00:03:11.163Z,99546.23
2022-08-30T00:05:43.076Z,99545.44
2022-08-30T00:08:12.132Z,99543.20
2022-08-30T00:10:47.205Z,99539.27
2022-08-30T00:13:19.506Z,99538.73
2022-08-30T00:15:51.294Z,99533.39
2022-08-30T00:18:20.931Z,99535.10
2022-08-30T00:20:56.002Z,99535.45
2022-08-30T00:23:23.921Z,99535.10
2022-08-30T00:25:51.810Z,99534.30
2022-08-30T00:28:24.195Z,99535.16
2022-08-30T00:30:52.111Z,99533.77
2022-08-30T00:33:20.719Z,99538.89
2022-08-30T00:35:51.509Z,99539.70
2022-08-30T00:38:19.859Z,99542.19
2022-08-30T00:40:51.345Z,99537.64
2022-08-30T00:43:28.016Z,99539.88
2022-08-30T00:45:58.317Z,99541.05
2022-08-30T00:48:26.316Z,99540.60
2022-08-30T00:51:01.982Z,99536.83
2022-08-30T00:53:37.761Z,99536.41
2022-08-30T00:56:06.576Z,99526.68
2022-08-30T00:58:40.211Z,99526.42
2022-08-30T01:01:13.086Z,99527.19
2022-08-30T01:03:43.929Z,99529.16
2022-08-30T01:06:15.776Z,99526.17
2022-08-30T01:08:47.661Z,99528.23
2022-08-30T01:11:20.289Z,99525.65
2022-08-30T01:13:51.859Z,99524.07
2022-08-30T01:16:22.344Z,99522.96
2022-08-30T01:18:56.297Z,99520.27
2022-08-30T01:21:36.464Z,99521.98
2022-08-30T01:24:09.552Z,99521.34
2022-08-30T01:26:40.979Z,99519.77
2022-08-30T01:29:13.430Z,99521.35
2022-08-30T01:31:41.262Z,99519.98
2022-08-30T01:34:10.206Z,99517.73
2022-08-30T01:36:44.877Z,99521.92
2022-08-30T01:39:18.566Z,99520.41
2022-08-30T01:41:47.240Z,99524.09
2022-08-30T01:44:18.150Z,99526.02
2022-08-30T01:46:48.491Z,99523.93
2022-08-30T01:49:18.922Z,99527.79
2022-08-30T01:52:01.137Z,99525.95
2022-08-30T01:54:36.833Z,99532.66
2022-08-30T01:57:10.708Z,99538.09
2022-08-30T01:59:43.045Z,99536.23
2022-08-30T02:02:12.352Z,99532.29
2022-08-30T02:04:41.330Z,99530.16
2022-08-30T02:07:09.420Z,99530.14
2022-08-30T02:09:38.110Z,99534.99
2022-08-30T02:12:09.116Z,99534.10
2022-08-30T02:14:38.871Z,99532.15
2022-08-30T02:17:09.193Z,99532.80
2022-08-30T02:19:41.000Z,99533.70
2022-08-30T02:22:13.396Z,99528.13
2022-08-30T02:24:41.910Z,99531.22
2022-08-30T02:27:09.776Z,99530.86
2022-08-30T02:29:38.903Z,99531.17
2022-08-30T02:32:08.221Z,99529.33
2022-08-30T02:34:37.293Z,99527.23
2022-08-30T02:37:09.537Z,99529.95
2022-08-30T02:39:37.444Z,99526.21
2022-08-30T02:42:05.826Z,99524.56
2022-08-30T02:44:33.873Z,99526.33
2022-08-30T02:47:05.987Z,99528.23
2022-08-30T02:49:34.192Z,99526.30
2022-08-30T02:52:06.241Z,99524.88
2022-08-30T02:54:35.681Z,99530.39
2022-08-30T02:57:05.263Z,99533.31
2022-08-30T02:59:42.159Z,99528.20
2022-08-30T03:02:13.032Z,99526.58
2022-08-30T03:04:43.725Z,99524.10
2022-08-30T03:07:13.160Z,99525.17
2022-08-30T03:09:41.450Z,99527.08
2022-08-30T03:12:10.836Z,99526.85
2022-08-30T03:14:41.648Z,99528.63
2022-08-30T03:17:12.806Z,99529.70
2022-08-30T03:19:49.772Z,99530.54
2022-08-30T03:22:18.600Z,99525.59
2022-08-30T03:24:47.923Z,99524.65
2022-08-30T03:27:18.786Z,99528.19
2022-08-30T03:29:49.482Z,99528.30
2022-08-30T03:32:18.712Z,99531.09
2022-08-30T03:34:50.469Z,99528.69
2022-08-30T03:37:18.506Z,99523.70
2022-08-30T03:39:56.884Z,99527.14
2022-08-30T03:42:26.562Z,99527.21
2022-08-30T03:44:55.767Z,99529.09
2022-08-30T03:47:26.603Z,99535.40
2022-08-30T03:49:55.582Z,99535.92
2022-08-30T03:52:26.846Z,99535.75
2022-08-30T03:54:54.667Z,99539.14
2022-08-30T03:57:24.509Z,99541.70
2022-08-30T03:59:52.844Z,99541.05
2022-08-30T04:02:22.359Z,99541.12
2022-08-30T04:04:53.290Z,99541.16
2022-08-30T04:07:21.202Z,99543.67
2022-08-30T04:09:50.347Z,99544.56
2022-08-30T04:12:22.742Z,99545.48
2022-08-30T04:14:51.671Z,99548.91
2022-08-30T04:17:20.331Z,99551.64
2022-08-30T04:19:49.404Z,99553.05
2022-08-30T04:22:17.557Z,99559.12
2022-08-30T04:24:47.063Z,99558.73
2022-08-30T04:27:20.349Z,99552.55
2022-08-30T04:29:49.983Z,99557.96
2022-08-30T04:32:19.892Z,99553.63
2022-08-30T04:34:49.562Z,99556.08
2022-08-30T04:37:17.820Z,99555.68
2022-08-30T04:39:51.522Z,99556.58
2022-08-30T04:42:22.333Z,99556.67
2022-08-30T04:44:53.307Z,99560.45
2022-08-30T04:47:21.937Z,99563.49
2022-08-30T04:49:50.257Z,99566.73
2022-08-30T04:52:18.136Z,99565.86
2022-08-30T04:54:50.026Z,99566.59
2022-08-30T04:57:43.535Z,99570.76
2022-08-30T05:00:20.870Z,99568.09
2022-08-30T05:02:50.029Z,99567.19
2022-08-30T05:05:37.864Z,99569.08
2022-08-30T05:08:11.074Z,99571.65
2022-08-30T05:10:48.754Z,99575.39
2022-08-30T05:13:35.219Z,99575.79
2022-08-30T05:16:10.459Z,99578.60
2022-08-30T05:18:41.130Z,99579.30
2022-08-30T05:21:16.760Z,99576.69
2022-08-30T05:23:45.134Z,99575.09
2022-08-30T05:26:21.036Z,99580.88
2022-08-30T05:28:52.441Z,99582.25
2022-08-30T05:31:34.561Z,99585.10
2022-08-30T05:34:05.106Z,99585.92
2022-08-30T05:36:36.390Z,99582.70
2022-08-30T05:39:10.284Z,99587.66
2022-08-30T05:41:38.526Z,99585.69
2022-08-30T05:44:08.885Z,99582.59
2022-08-30T05:46:46.315Z,99587.16
2022-08-30T05:49:39.859Z,99588.16
2022-08-30T05:52:18.155Z,99585.23
2022-08-30T05:54:51.764Z,99587.46
2022-08-30T05:57:20.253Z,99585.67
2022-08-30T06:00:14.767Z,99587.33
2022-08-30T06:02:44.297Z,99586.08
2022-08-30T06:05:14.485Z,99587.05
2022-08-30T06:07:49.569Z,99585.98
2022-08-30T06:10:22.928Z,99596.05
2022-08-30T06:13:17.072Z,99596.05
2022-08-30T06:15:52.779Z,99598.02
2022-08-30T06:18:23.523Z,99600.04
2022-08-30T06:20:56.469Z,99603.50
2022-08-30T06:23:24.911Z,99606.42
2022-08-30T06:26:03.140Z,99602.06
2022-08-30T06:28:32.434Z,99600.26
2022-08-30T06:31:07.727Z,99599.52
2022-08-30T06:33:42.615Z,99598.81
2022-08-30T06:36:12.975Z,99598.45
2022-08-30T06:38:50.520Z,99598.09
2022-08-30T06:41:20.581Z,99599.46
2022-08-30T06:43:54.878Z,99597.40
2022-08-30T06:46:25.955Z,99598.47
2022-08-30T06:48:59.658Z,99596.86
2022-08-30T06:51:38.508Z,99592.59
2022-08-30T06:54:10.779Z,99597.20
2022-08-30T06:56:58.204Z,99598.23
2022-08-30T06:59:33.256Z,99598.70
2022-08-30T07:02:01.711Z,99597.84
2022-08-30T07:04:30.151Z,99604.57
2022-08-30T07:07:01.034Z,99603.38
2022-08-30T07:12:04.163Z,99614.11
2022-08-30T07:14:38.935Z,99612.17
2022-08-30T07:17:32.606Z,99611.46
2022-08-30T07:20:05.630Z,99620.41
2022-08-30T07:22:33.861Z,99621.59
2022-08-30T07:25:27.621Z,99617.20
2022-08-30T07:28:08.810Z,99615.58
2022-08-30T07:30:36.913Z,99616.13
2022-08-30T07:33:08.777Z,99614.05
2022-08-30T07:35:37.412Z,99615.14
2022-08-30T07:38:05.712Z,99621.42
2022-08-30T07:41:01.530Z,99624.60
2022-08-30T07:43:31.646Z,99626.62
2022-08-30T07:46:07.763Z,99627.20
2022-08-30T07:48:36.130Z,99628.86
2022-08-30T07:51:10.067Z,99631.15
2022-08-30T07:53:38.274Z,99629.83
2022-08-30T07:56:15.570Z,99639.45
2022-08-30T07:58:49.760Z,99640.73
2022-08-30T08:01:24.362Z,99641.98
2022-08-30T08:03:58.507Z,99647.93
2022-08-30T08:06:34.624Z,99643.84
2022-08-30T08:09:03.992Z,99643.77
2022-08-30T08:11:35.734Z,99647.59
2022-08-30T08:14:05.009Z,99650.27
2022-08-30T08:16:35.853Z,99654.23
2022-08-30T08:19:09.195Z,99654.09
2022-08-30T08:21:38.245Z,99658.77
2022-08-30T08:24:13.246Z,99657.87
2022-08-30T08:26:45.366Z,99662.48
2022-08-30T08:29:14.182Z,99661.70
2022-08-30T08:31:48.155Z,99662.80
2022-08-30T08:34:19.186Z,99664.77
2022-08-30T08:36:49.238Z,99667.16
2022-08-30T08:39:23.148Z,99665.80
2022-08-30T08:42:04.622Z,99672.33
2022-08-30T08:45:17.581Z,99672.28
2022-08-30T08:48:07.290Z,99664.77
2022-08-30T08:51:02.811Z,99663.70
2022-08-30T08:53:46.248Z,99658.63
2022-08-30T08:56:17.435Z,99654.95
2022-08-30T08:58:55.247Z,99649.87
2022-08-30T09:01:29.667Z,99654.14
2022-08-30T09:04:01.679Z,99652.80
2022-08-30T09:06:50.993Z,99655.59
2022-08-30T09:09:27.871Z,99655.16
2022-08-30T09:11:55.759Z,99661.41
2022-08-30T09:14:32.134Z,99661.68
2022-08-30T09:17:10.339Z,99657.60
2022-08-30T09:19:41.837Z,99653.16
2022-08-30T09:22:30.857Z,99651.75
2022-08-30T09:25:13.704Z,99657.77
2022-08-30T09:27:47.711Z,99654.75
2022-08-30T09:30:27.315Z,99650.10
2022-08-30T09:33:01.660Z,99645.48
2022-08-30T09:35:42.823Z,99644.62
2022-08-30T09:38:21.543Z,99648.33
2022-08-30T09:40:58.941Z,99644.12
2022-08-30T09:43:33.416Z,99642.46
2022-08-30T09:46:16.066Z,99636.77
2022-08-30T09:48:49.267Z,99633.90
2022-08-30T09:51:54.975Z,99635.78
2022-08-30T09:54:42.452Z,99634.77
2022-08-30T09:57:46.084Z,99641.17
2022-08-30T10:00:44.465Z,99634.45
2022-08-30T10:03:35.721Z,99634.08
2022-08-30T10:06:19.522Z,99632.05
2022-08-30T10:09:22.868Z,99633.00
2022-08-30T10:12:15.434Z,99627.69
2022-08-30T10:15:15.346Z,99631.07
2022-08-30T10:18:12.905Z,99637.67
2022-08-30T10:20:52.904Z,99638.87
2022-08-30T10:23:30.467Z,99635.27
2022-08-30T10:26:14.354Z,99631.05
2022-08-30T10:28:58.930Z,99628.72
2022-08-30T10:31:48.143Z,99625.48
2022-08-30T10:34:41.501Z,99618.73
2022-08-30T10:37:24.681Z,99612.62
2022-08-30T10:40:21.979Z,99616.34
2022-08-30T10:42:53.166Z,99617.05
2022-08-30T10:45:25.706Z,99613.12
2022-08-30T10:48:17.637Z,99615.44
2022-08-30T10:50:55.375Z,99612.63
2022-08-30T10:53:37.317Z,99611.50
2022-08-30T10:56:19.314Z,99610.30
2022-08-30T10:58:48.672Z,99604.48
2022-08-30T11:01:46.421Z,99606.53
2022-08-30T11:04:44.557Z,99599.62
2022-08-30T11:07:52.235Z,99597.23
2022-08-30T11:10:58.426Z,99604.94
2022-08-30T11:13:35.785Z,99597.92
2022-08-30T11:16:15.644Z,99614.50
2022-08-30T11:18:52.200Z,99611.52
2022-08-30T11:21:35.242Z,99611.15
2022-08-30T11:24:19.751Z,99609.54
2022-08-30T11:27:00.348Z,99608.89
2022-08-30T11:29:35.162Z,99608.25
2022-08-30T11:32:18.525Z,99604.21
2022-08-30T11:35:00.239Z,99605.30
2022-08-30T11:37:45.387Z,99602.16
2022-08-30T11:40:49.384Z,99600.05
2022-08-30T11:43:42.483Z,99602.40
2022-08-30T11:46:28.983Z,99606.52
2022-08-30T11:49:15.587Z,99607.30
2022-08-30T11:55:21.492Z,99603.13
2022-08-30T11:58:07.448Z,99601.49
2022-08-30T12:00:52.582Z,99597.11
2022-08-30T12:03:39.970Z,99592.66
2022-08-30T12:06:10.883Z,99591.49
2022-08-30T12:08:56.548Z,99596.03
2022-08-30T12:11:57.146Z,99592.04
2022-08-30T12:14:52.304Z,99584.96
2022-08-30T12:18:15.326Z,99582.72
2022-08-30T12:20:54.453Z,99585.84
2022-08-30T12:23:53.540Z,99577.84
2022-08-30T12:26:49.530Z,99574.36
2022-08-30T12:29:25.173Z,99571.77
2022-08-30T12:32:19.459Z,99564.90
2022-08-30T12:34:53.163Z,99563.84
2022-08-30T12:37:35.783Z,99555.12
2022-08-30T12:40:15.441Z,99554.60
2022-08-30T12:43:02.954Z,99553.73
2022-08-30T12:45:44.333Z,99547.56
2022-08-30T12:48:17.938Z,99546.61
2022-08-30T12:50:56.084Z,99544.13
2022-08-30T12:53:39.497Z,99532.10
2022-08-30T12:56:30.440Z,99533.68
2022-08-30T12:59:06.446Z,99535.17
2022-08-30T13:01:37.127Z,99537.99
2022-08-30T13:04:20.469Z,99536.94
2022-08-30T13:06:58.580Z,99537.06
2022-08-30T13:09:34.132Z,99526.70
2022-08-30T13:12:05.854Z,99524.36
2022-08-30T13:17:29.323Z,99521.85
2022-08-30T13:20:17.142Z,99521.74
2022-08-30T13:23:08.798Z,99522.12
2022-08-30T13:25:38.990Z,99520.25
2022-08-30T13:28:07.848Z,99518.96
2022-08-30T13:30:36.097Z,99514.17
2022-08-30T13:33:04.183Z,99515.39
2022-08-30T13:35:32.609Z,99520.45
2022-08-30T13:38:02.344Z,99520.08
2022-08-30T13:40:36.772Z,99513.67
2022-08-30T13:43:10.739Z,99518.72
2022-08-30T13:45:41.970Z,99518.14
2022-08-30T13:48:11.771Z,99519.09
2022-08-30T13:51:06.346Z,99516.11
2022-08-30T13:53:52.618Z,99520.20
2022-08-30T13:56:21.596Z,99517.39
2022-08-30T13:58:55.763Z,99517.93
2022-08-30T14:01:25.401Z,99516.66
2022-08-30T14:09:30.693Z,99508.33
2022-08-30T14:12:01.573Z,99508.58
2022-08-30T14:14:42.458Z,99504.95
2022-08-30T14:17:12.779Z,99507.60
2022-08-30T14:19:41.123Z,99505.48
2022-08-30T14:22:10.199Z,99504.30
2022-08-30T14:24:38.728Z,99503.14
2022-08-30T14:27:13.026Z,99501.49
2022-08-30T14:29:46.521Z,99501.92
2022-08-30T14:32:14.787Z,99500.33
2022-08-30T14:34:43.304Z,99498.27
2022-08-30T14:37:13.845Z,99500.83
2022-08-30T14:39:42.224Z,99500.18
2022-08-30T14:42:12.758Z,99503.33
2022-08-30T14:44:56.274Z,99503.36
2022-08-30T14:47:29.854Z,99500.42
2022-08-30T14:50:01.161Z,99499.13
2022-08-30T14:52:30.988Z,99496.21
2022-08-30T14:55:09.437Z,99492.02
2022-08-30T14:57:39.567Z,99496.95
2022-08-30T15:00:13.375Z,99497.00
2022-08-30T15:02:46.606Z,99501.11
2022-08-30T15:05:14.519Z,99497.42
2022-08-30T15:07:43.323Z,99499.01
2022-08-30T15:10:15.570Z,99488.35
2022-08-30T15:12:47.935Z,99487.90
2022-08-30T15:15:21.038Z,99489.38
2022-08-30T15:17:49.208Z,99490.23
2022-08-30T15:20:20.820Z,99487.06
2022-08-30T15:22:48.663Z,99489.42
2022-08-30T15:25:16.440Z,99490.49
2022-08-30T15:27:45.700Z,99489.18
2022-08-30T15:30:17.078Z,99485.14
2022-08-30T15:32:48.702Z,99484.84
2022-08-30T15:35:16.686Z,99482.30
2022-08-30T15:37:44.695Z,99479.83
2022-08-30T15:40:13.293Z,99481.65
2022-08-30T15:42:42.336Z,99481.34
2022-08-30T15:45:17.825Z,99478.33
2022-08-30T15:47:46.352Z,99480.81
2022-08-30T15:50:14.485Z,99475.01
2022-08-30T15:52:42.890Z,99469.19
2022-08-30T15:55:16.277Z,99467.75
2022-08-30T15:57:44.098Z,99468.08
2022-08-30T16:00:41.597Z,99464.95
2022-08-30T16:03:19.068Z,99456.52
2022-08-30T16:05:48.830Z,99456.89
2022-08-30T16:08:19.460Z,99457.95
2022-08-30T16:10:52.075Z,99459.16
2022-08-30T16:13:20.332Z,99455.12
2022-08-30T16:15:48.646Z,99456.91
2022-08-30T16:18:17.120Z,99458.68
2022-08-30T16:20:45.301Z,99452.09
2022-08-30T16:23:18.693Z,99453.98
2022-08-30T16:25:47.694Z,99449.79
2022-08-30T16:28:15.938Z,99451.66
2022-08-30T16:30:46.664Z,99448.15
2022-08-30T16:33:18.428Z,99450.64
2022-08-30T16:35:50.279Z,99451.77
2022-08-30T16:38:19.166Z,99454.61
2022-08-30T16:40:52.150Z,99457.80
2022-08-30T16:43:22.182Z,99456.75
2022-08-30T16:45:50.180Z,99454.65
2022-08-30T16:48:18.228Z,99453.38
2022-08-30T16:50:48.164Z,99449.20
2022-08-30T16:53:19.223Z,99451.45
2022-08-30T16:55:48.383Z,99449.39
2022-08-30T16:58:18.989Z,99451.44
2022-08-30T17:00:51.976Z,99452.89
2022-08-30T17:03:22.995Z,99451.33
2022-08-30T17:05:51.506Z,99453.29
2022-08-30T17:08:30.381Z,99451.40
2022-08-30T17:10:59.359Z,99456.73
2022-08-30T17:13:30.475Z,99458.08
2022-08-30T17:16:06.115Z,99460.84
2022-08-30T17:18:37.915Z,99464.03
2022-08-30T17:21:06.342Z,99458.43
2022-08-30T17:23:35.934Z,99459.60
2022-08-30T17:26:04.330Z,99460.53
2022-08-30T17:28:33.980Z,99460.52
2022-08-30T17:31:03.519Z,99465.59
2022-08-30T17:33:32.520Z,99471.92
2022-08-30T17:36:00.483Z,99473.46
2022-08-30T17:38:36.320Z,99477.23
2022-08-30T17:41:14.581Z,99482.45
2022-08-30T17:43:44.099Z,99481.39
2022-08-30T17:46:20.754Z,99494.92
2022-08-30T17:48:57.926Z,99494.88
2022-08-30T17:51:30.210Z,99497.30
2022-08-30T17:53:59.656Z,99499.73
2022-08-30T17:56:35.537Z,99500.31
2022-08-30T17:59:06.185Z,99500.29
2022-08-30T18:01:34.897Z,99504.74
2022-08-30T18:04:06.368Z,99504.77
2022-08-30T18:06:37.592Z,99505.38
2022-08-30T18:09:08.998Z,99510.02
2022-08-30T18:11:42.362Z,99507.64
2022-08-30T18:16:59.308Z,99516.51
2022-08-30T18:19:29.298Z,99513.55
2022-08-30T18:22:03.147Z,99518.23
2022-08-30T18:24:32.049Z,99523.14
2022-08-30T18:27:04.465Z,99525.48
2022-08-30T18:29:37.864Z,99528.10
2022-08-30T18:32:06.311Z,99528.67
2022-08-30T18:34:42.459Z,99527.45
2022-08-30T18:37:13.553Z,99535.11
2022-08-30T18:39:59.061Z,99536.80
2022-08-30T18:42:32.021Z,99534.54
2022-08-30T18:45:14.594Z,99536.98
2022-08-30T18:47:48.514Z,99537.32
2022-08-30T18:50:23.207Z,99532.98
2022-08-30T18:52:56.087Z,99532.45
2022-08-30T18:55:29.173Z,99539.09
2022-08-30T18:58:04.262Z,99539.21
2022-08-30T19:00:33.697Z,99537.60
2022-08-30T19:03:09.063Z,99538.08
2022-08-30T19:05:39.305Z,99539.36
2022-08-30T19:08:08.238Z,99536.51
2022-08-30T19:10:37.367Z,99533.73
2022-08-30T19:13:08.349Z,99534.77
2022-08-30T19:15:40.272Z,99538.60
2022-08-30T19:18:16.934Z,99537.98
2022-08-30T19:20:46.910Z,99540.96
2022-08-30T19:23:18.563Z,99542.43
2022-08-30T19:25:46.792Z,99543.16
2022-08-30T19:28:24.669Z,99545.04
2022-08-30T19:30:52.943Z,99546.86
2022-08-30T19:33:23.930Z,99547.02
2022-08-30T19:35:51.824Z,99552.70
2022-08-30T19:38:20.272Z,99551.98
2022-08-30T19:40:54.585Z,99549.92
2022-08-30T19:43:23.116Z,99549.80
2022-08-30T19:45:54.166Z,99550.84
2022-08-30T19:48:24.208Z,99550.21
2022-08-30T19:51:08.276Z,99553.93
2022-08-30T19:53:36.761Z,99555.23
2022-08-30T19:56:05.062Z,99556.16
2022-08-30T19:58:34.138Z,99553.26
2022-08-30T20:01:10.857Z,99553.48
2022-08-30T20:03:41.267Z,99553.20
2022-08-30T20:06:09.105Z,99547.83
2022-08-30T20:08:38.480Z,99546.85
2022-08-30T20:11:08.925Z,99547.59
2022-08-30T20:13:36.874Z,99550.30
2022-08-30T20:16:06.772Z,99549.84
2022-08-30T20:18:35.080Z,99544.93
2022-08-30T20:21:05.900Z,99544.67
2022-08-30T20:23:43.563Z,99546.73
2022-08-30T20:24:26.633Z,99515.77
2022-08-30T20:26:13.146Z,99547.83
2022-08-30T20:28:45.044Z,99545.11
2022-08-30T20:31:16.551Z,99545.58
2022-08-30T20:33:46.916Z,99540.04
2022-08-30T20:36:15.855Z,99537.48
2022-08-30T20:38:44.543Z,99532.66
2022-08-30T20:41:20.022Z,99538.21
2022-08-30T20:43:49.022Z,99544.56
2022-08-30T20:46:19.580Z,99549.26
2022-08-30T20:48:48.254Z,99551.59
2022-08-30T20:51:23.918Z,99548.08
2022-08-30T20:53:56.034Z,99551.64
2022-08-30T20:56:27.862Z,99553.21
2022-08-30T20:58:56.458Z,99555.42
2022-08-30T21:01:27.884Z,99557.36
2022-08-30T21:03:56.300Z,99566.33
2022-08-30T21:06:25.510Z,99563.90
2022-08-30T21:08:53.480Z,99564.14
2022-08-30T21:11:21.890Z,99565.08
2022-08-30T21:13:52.076Z,99566.01
2022-08-30T21:16:22.147Z,99566.98
2022-08-30T21:18:56.225Z,99565.70
2022-08-30T21:21:28.218Z,99566.02
2022-08-30T21:24:10.168Z,99565.25
2022-08-30T21:26:42.285Z,99562.30
2022-08-30T21:29:12.165Z,99562.63
2022-08-30T21:31:41.016Z,99560.66
2022-08-30T21:34:17.207Z,99559.77
2022-08-30T21:36:47.596Z,99561.41
2022-08-30T21:39:18.581Z,99555.12
2022-08-30T21:41:52.416Z,99554.30
2022-08-30T21:44:24.552Z,99557.85
2022-08-30T21:46:54.576Z,99556.90
2022-08-30T21:49:25.465Z,99560.83
2022-08-30T21:51:55.641Z,99564.05
2022-08-30T21:54:31.318Z,99566.42
2022-08-30T21:57:01.813Z,99568.24
2022-08-30T21:59:32.762Z,99568.27
2022-08-30T22:02:02.110Z,99565.26
2022-08-30T22:04:33.036Z,99566.90
2022-08-30T22:07:02.471Z,99571.64
2022-08-30T22:09:30.405Z,99572.77
2022-08-30T22:12:01.518Z,99569.68
2022-08-30T22:14:31.081Z,99570.93
2022-08-30T22:16:59.193Z,99571.73
2022-08-30T22:19:31.536Z,99575.61
2022-08-30T22:22:01.977Z,99577.91
2022-08-30T22:24:32.569Z,99577.60
2022-08-30T22:27:05.172Z,99576.24
2022-08-30T22:29:33.972Z,99577.29
2022-08-30T22:32:01.844Z,99573.77
2022-08-30T22:34:32.184Z,99571.25
2022-08-30T22:37:00.067Z,99573.23
2022-08-30T22:39:27.998Z,99575.73
2022-08-30T22:41:56.044Z,99574.08
2022-08-30T22:44:25.639Z,99578.60
2022-08-30T22:46:53.979Z,99579.63
2022-08-30T22:49:23.439Z,99580.30
2022-08-30T22:51:51.257Z,99578.34
2022-08-30T22:54:19.175Z,99580.50
2022-08-30T22:56:47.128Z,99579.02
2022-08-30T22:59:15.220Z,99579.33
2022-08-30T23:01:47.296Z,99578.44
2022-08-30T23:04:15.248Z,99582.81
2022-08-30T23:06:49.780Z,99583.39
2022-08-30T23:09:18.857Z,99582.14
2022-08-30T23:11:46.988Z,99586.79
2022-08-30T23:14:15.001Z,99581.80
2022-08-30T23:16:42.916Z,99580.29
2022-08-30T23:19:10.741Z,99583.79
2022-08-30T23:21:38.502Z,99585.39
2022-08-30T23:24:25.094Z,99579.63
2022-08-30T23:27:11.948Z,99576.74
2022-08-30T23:30:00.007Z,99573.27
2022-08-30T23:32:47.896Z,99575.37
2022-08-30T23:35:34.550Z,99572.98
2022-08-30T23:38:23.687Z,99573.00
2022-08-30T23:41:10.385Z,99578.34
2022-08-30T23:43:57.115Z,99573.47
2022-08-30T23:46:43.777Z,99572.52
2022-08-30T23:49:30.582Z,99573.27
2022-08-30T23:52:17.309Z,99576.02
2022-08-30T23:55:04.058Z,99576.42
2022-08-30T23:57:51.703Z,99572.29
